Time;durP1;ratioP1;P1;durP2;ratioP2;P2;SDS_P1;SDS_P2;PMS_P1;PMS_P2;Temp;Humidity;BMP_temperature;BMP_pressure;BME280_temperature;BME280_humidity;BME280_pressure;Samples;Min_cycle;Max_cycle;Signal;HPM_P1;HPM_P2
2021/03/01 00:00:34;;;;;;;14.27;12.70;;;;;;;3.56;85.78;102507.63;5047021;28;20571;-79
2021/03/01 00:03:01;;;;;;;12.63;11.43;;;;;;;3.69;85.44;102503.88;5047065;28;20721;-81
2021/03/01 00:05:27;;;;;;;13.37;12.07;;;;;;;3.71;86.33;102498.78;5072190;22;20286;-81
2021/03/01 00:07:53;;;;;;;13.03;11.83;;;;;;;3.72;85.67;102498.81;5078614;28;20209;-79
2021/03/01 00:10:19;;;;;;;13.27;11.97;;;;;;;3.69;85.29;102498.72;5073975;28;20265;-78
2021/03/01 00:12:46;;;;;;;11.53;10.53;;;;;;;3.69;86.01;102497.84;5074992;28;20641;-78
2021/03/01 00:15:15;;;;;;;13.17;11.80;;;;;;;3.74;86.01;102496.31;5080824;28;20221;-79
2021/03/01 00:17:42;;;;;;;14.00;12.60;;;;;;;3.62;86.63;102485.47;5087659;28;20229;-79
2021/03/01 00:20:11;;;;;;;13.77;12.30;;;;;;;3.50;86.84;102485.81;5083652;28;20200;-80
2021/03/01 00:22:37;;;;;;;17.47;13.10;;;;;;;3.57;87.63;102485.28;5092003;28;20253;-80
2021/03/01 00:25:04;;;;;;;14.30;12.77;;;;;;;3.64;87.08;102491.59;5094159;28;20250;-81
2021/03/01 00:27:30;;;;;;;13.83;12.37;;;;;;;3.74;87.30;102488.56;5088251;28;20204;-80
2021/03/01 00:29:55;;;;;;;15.10;13.43;;;;;;;3.45;87.77;102493.38;5082159;28;20208;-78
2021/03/01 00:32:21;;;;;;;16.77;14.73;;;;;;;3.28;88.59;102490.03;5090081;28;20303;-78
2021/03/01 00:34:47;;;;;;;15.77;14.07;;;;;;;3.21;88.73;102495.78;5093790;28;20220;-80
2021/03/01 00:37:14;;;;;;;17.70;14.27;;;;;;;3.29;88.58;102488.34;5094075;28;20227;-80
2021/03/01 00:39:40;;;;;;;16.93;13.10;;;;;;;3.13;89.38;102490.28;5094799;28;20568;-78
2021/03/01 00:42:06;;;;;;;16.73;14.73;;;;;;;3.08;89.33;102491.75;5080525;28;20204;-78
2021/03/01 00:44:32;;;;;;;17.50;14.57;;;;;;;3.24;89.92;102490.72;5086025;28;20253;-77
2021/03/01 00:46:58;;;;;;;16.53;13.37;;;;;;;3.25;89.36;102502.84;5092732;28;20659;-78
2021/03/01 00:49:24;;;;;;;14.73;13.10;;;;;;;3.20;89.55;102493.13;5094589;28;20209;-77
2021/03/01 00:51:50;;;;;;;16.17;13.50;;;;;;;3.28;89.99;102490.03;5093252;28;20291;-79
2021/03/01 00:54:17;;;;;;;19.53;14.33;;;;;;;3.29;89.63;102496.09;5094933;28;20220;-79
2021/03/01 00:56:42;;;;;;;18.43;14.73;;;;;;;3.09;90.49;102484.88;5093131;28;20235;-81
2021/03/01 00:59:08;;;;;;;20.07;14.90;;;;;;;3.08;90.51;102494.31;5094246;28;20200;-79
2021/03/01 01:01:34;;;;;;;15.87;14.17;;;;;;;3.25;91.15;102491.59;5087237;28;20216;-77
2021/03/01 01:04:00;;;;;;;15.93;14.23;;;;;;;3.41;90.22;102496.66;5083662;28;20207;-79
2021/03/01 01:06:26;;;;;;;15.37;13.80;;;;;;;3.57;89.95;102487.88;5093197;28;20755;-80
2021/03/01 01:08:52;;;;;;;18.67;13.27;;;;;;;3.64;88.74;102491.59;5094469;28;20197;-80
2021/03/01 01:11:18;;;;;;;15.47;13.87;;;;;;;3.35;89.33;102498.94;5092490;28;20264;-81
2021/03/01 01:13:44;;;;;;;17.60;14.47;;;;;;;3.20;89.85;102495.69;5093543;28;20576;-79
2021/03/01 01:16:10;;;;;;;17.60;14.27;;;;;;;3.36;90.09;102498.13;5087085;28;20260;-80
2021/03/01 01:18:36;;;;;;;17.13;13.90;;;;;;;3.47;89.54;102498.59;5094239;28;20227;-78
2021/03/01 01:21:02;;;;;;;17.17;12.87;;;;;;;3.48;89.97;102501.25;5086819;28;20636;-78
2021/03/01 01:23:28;;;;;;;18.30;14.00;;;;;;;3.47;90.14;102496.00;5089975;28;20220;-80
2021/03/01 01:25:54;;;;;;;16.63;14.33;;;;;;;3.26;89.74;102498.56;5092869;28;20230;-78
2021/03/01 01:28:20;;;;;;;16.60;13.60;;;;;;;3.22;90.25;102497.53;5094158;28;20196;-78
2021/03/01 01:30:47;;;;;;;16.33;14.57;;;;;;;3.13;91.18;102495.44;5089451;28;20211;-78
2021/03/01 01:33:13;;;;;;;17.03;14.77;;;;;;;3.28;91.05;102502.06;5087898;28;20200;-81
2021/03/01 01:35:39;;;;;;;23.83;15.13;;;;;;;3.25;90.48;102478.69;5086623;28;20240;-79
2021/03/01 01:38:05;;;;;;;16.57;13.57;;;;;;;3.45;90.98;102484.72;5094662;28;20216;-79
2021/03/01 01:40:32;;;;;;;18.13;13.53;;;;;;;3.58;90.64;102479.28;5092362;28;20200;-80
2021/03/01 01:42:58;;;;;;;14.80;13.20;;;;;;;3.51;90.06;102478.16;5094262;28;20199;-79
2021/03/01 01:45:25;;;;;;;15.73;14.13;;;;;;;3.47;90.23;102481.44;5088015;28;20225;-81
2021/03/01 01:47:53;;;;;;;14.70;13.20;;;;;;;3.48;90.28;102475.44;5092281;28;20620;-80
2021/03/01 01:50:20;;;;;;;15.40;13.80;;;;;;;3.60;89.53;102469.91;5092468;28;20215;-79
2021/03/01 01:52:48;;;;;;;13.97;12.53;;;;;;;3.72;89.99;102469.53;5094245;28;20201;-80
2021/03/01 01:55:15;;;;;;;14.80;12.80;;;;;;;3.71;89.18;102462.63;5093130;28;20228;-80
2021/03/01 01:57:41;;;;;;;15.23;13.20;;;;;;;3.57;89.02;102468.09;5093823;28;20230;-79
2021/03/01 02:00:12;;;;;;;15.53;13.93;;;;;;;3.40;90.11;102471.63;5092188;28;20196;-81
2021/03/01 02:02:39;;;;;;;17.47;13.30;;;;;;;3.25;90.64;102468.38;5086973;28;20210;-80
2021/03/01 02:05:07;;;;;;;23.07;14.57;;;;;;;3.25;90.98;102458.06;5086587;28;20227;-79
2021/03/01 02:07:42;;;;;;;19.03;13.20;;;;;;;3.46;91.02;102466.72;5093917;28;20666;-78
2021/03/01 02:10:10;;;;;;;15.73;12.53;;;;;;;3.64;90.17;102468.34;5076074;28;20333;-80
2021/03/01 02:12:54;;;;;;;16.63;13.97;;;;;;;3.73;90.20;102466.16;5093269;28;20233;-79
2021/03/01 02:15:26;;;;;;;18.93;13.50;;;;;;;3.75;89.00;102461.94;5092211;28;20702;-78
2021/03/01 02:17:52;;;;;;;16.63;13.03;;;;;;;3.60;89.00;102464.75;5093718;28;20728;-78
2021/03/01 02:20:18;;;;;;;17.67;14.20;;;;;;;3.63;89.32;102463.97;5091530;28;20213;-80
2021/03/01 02:22:45;;;;;;;15.67;12.93;;;;;;;3.60;89.38;102462.16;5093390;28;20203;-78
2021/03/01 02:25:15;;;;;;;15.37;13.10;;;;;;;3.61;89.16;102455.28;5089606;28;20273;-79
2021/03/01 02:27:45;;;;;;;17.60;14.33;;;;;;;3.52;90.04;102458.38;5091307;28;20189;-80
2021/03/01 02:30:16;;;;;;;17.23;13.30;;;;;;;3.57;90.07;102460.34;5080300;28;20200;-80
2021/03/01 02:32:43;;;;;;;16.63;13.93;;;;;;;3.54;90.09;102449.88;5085052;28;20265;-78
2021/03/01 02:35:12;;;;;;;15.97;13.40;;;;;;;3.58;89.58;102454.34;5092161;28;20274;-78
2021/03/01 02:37:40;;;;;;;18.67;13.53;;;;;;;3.43;90.20;102448.53;5093408;28;20245;-80
2021/03/01 02:40:09;;;;;;;18.73;14.17;;;;;;;3.60;90.07;102448.38;5090063;28;20204;-78
2021/03/01 02:42:38;;;;;;;16.73;14.87;;;;;;;3.65;89.41;102447.75;5089951;28;20239;-80
2021/03/01 02:45:06;;;;;;;16.70;13.70;;;;;;;3.80;89.20;102454.38;5081674;28;20224;-80
2021/03/01 02:47:33;;;;;;;14.07;12.40;;;;;;;3.88;89.25;102448.69;5093169;28;20667;-80
2021/03/01 02:50:00;;;;;;;16.33;13.83;;;;;;;3.99;88.89;102446.56;5077858;28;20200;-79
2021/03/01 02:52:28;;;;;;;14.90;13.33;;;;;;;3.92;88.79;102447.13;5088665;28;20295;-80
2021/03/01 02:54:55;;;;;;;15.60;13.00;;;;;;;4.00;88.60;102444.84;5091771;28;20220;-81
2021/03/01 02:57:25;;;;;;;13.87;11.33;;;;;;;4.13;87.88;102447.09;5087934;28;20216;-78
2021/03/01 02:59:53;;;;;;;14.73;12.83;;;;;;;4.14;88.28;102451.44;5078212;28;20202;-80
2021/03/01 03:02:19;;;;;;;15.90;13.17;;;;;;;4.14;87.97;102448.84;5080867;28;20688;-80
2021/03/01 03:04:47;;;;;;;16.33;13.70;;;;;;;4.10;88.19;102444.38;5092020;28;20567;-79
2021/03/01 03:07:14;;;;;;;16.10;13.33;;;;;;;4.06;87.88;102448.53;5085829;28;20222;-81
2021/03/01 03:09:44;;;;;;;13.80;12.37;;;;;;;4.08;87.66;102440.88;5093937;28;20209;-80
2021/03/01 03:12:13;;;;;;;15.70;13.77;;;;;;;4.17;87.64;102443.81;5088311;28;20207;-81
2021/03/01 03:14:41;;;;;;;16.63;12.90;;;;;;;4.25;86.76;102442.41;5078218;28;20664;-80
2021/03/01 03:17:08;;;;;;;14.60;13.10;;;;;;;4.27;86.88;102445.06;5093099;28;20210;-80
2021/03/01 03:19:34;;;;;;;16.70;13.60;;;;;;;4.25;86.49;102446.72;5094320;28;20231;-80
2021/03/01 03:22:00;;;;;;;16.67;13.27;;;;;;;4.02;86.67;102449.25;5089768;28;20203;-81
2021/03/01 03:24:26;;;;;;;17.30;14.20;;;;;;;4.06;86.95;102448.53;5098467;28;20204;-80
2021/03/01 03:26:53;;;;;;;15.33;13.83;;;;;;;4.14;86.99;102452.34;5090784;28;20211;-80
2021/03/01 03:29:19;;;;;;;17.93;13.50;;;;;;;4.21;86.87;102450.88;5097163;28;20208;-80
2021/03/01 03:31:45;;;;;;;19.60;14.07;;;;;;;4.30;86.57;102442.59;5085140;28;20213;-79
2021/03/01 03:34:11;;;;;;;15.50;13.87;;;;;;;4.31;86.63;102446.94;5097687;28;20659;-81
2021/03/01 03:36:43;;;;;;;15.53;13.87;;;;;;;4.31;87.02;102452.13;5097007;28;20242;-81
2021/03/01 03:39:10;;;;;;;14.30;12.90;;;;;;;4.34;86.71;102449.63;5098253;28;20225;-78
2021/03/01 03:41:37;;;;;;;14.23;12.83;;;;;;;4.31;87.00;102455.59;5096652;28;20888;-80
2021/03/01 03:44:05;;;;;;;13.73;12.27;;;;;;;4.34;87.03;102458.31;5097295;28;20198;-80
2021/03/01 03:46:32;;;;;;;14.90;13.33;;;;;;;4.37;86.80;102453.22;5091224;28;20230;-78
2021/03/01 03:49:00;;;;;;;14.37;12.57;;;;;;;4.40;86.76;102456.75;5098283;28;20206;-79
2021/03/01 03:51:28;;;;;;;14.10;12.67;;;;;;;4.42;86.28;102463.78;5096256;28;20220;-80
2021/03/01 03:53:59;;;;;;;13.80;12.40;;;;;;;4.44;85.76;102461.22;5098100;28;20205;-80
2021/03/01 03:56:27;;;;;;;14.77;12.23;;;;;;;4.41;86.19;102463.72;5096827;28;20586;-80
2021/03/01 03:58:57;;;;;;;13.87;12.57;;;;;;;4.35;86.39;102465.22;5097041;28;20255;-81
2021/03/01 04:01:26;;;;;;;14.67;12.87;;;;;;;4.37;86.41;102463.56;5086293;28;20235;-81
2021/03/01 04:03:54;;;;;;;13.87;12.40;;;;;;;4.43;86.29;102465.53;5096751;28;20204;-80
2021/03/01 04:06:22;;;;;;;14.40;13.00;;;;;;;4.40;86.11;102462.84;5096588;28;20233;-81
2021/03/01 04:08:51;;;;;;;16.90;13.50;;;;;;;4.36;86.39;102464.41;5097435;28;20207;-79
2021/03/01 04:11:20;;;;;;;14.23;12.80;;;;;;;4.43;86.42;102462.94;5090379;28;20653;-81
2021/03/01 04:13:47;;;;;;;14.33;11.57;;;;;;;4.37;86.09;102466.16;5088008;28;20750;-82
2021/03/01 04:16:15;;;;;;;14.03;12.50;;;;;;;4.36;86.52;102469.59;5087136;28;20216;-81
2021/03/01 04:18:45;;;;;;;16.83;13.27;;;;;;;4.38;86.29;102465.34;5094992;28;20566;-81
2021/03/01 04:21:12;;;;;;;13.53;12.17;;;;;;;4.43;85.75;102465.53;5096555;28;20218;-80
2021/03/01 04:23:42;;;;;;;12.93;11.67;;;;;;;4.42;85.99;102453.44;5097490;28;20211;-80
2021/03/01 04:26:08;;;;;;;13.23;11.87;;;;;;;4.46;86.21;102455.31;5089913;28;20277;-81
2021/03/01 04:28:35;;;;;;;15.73;13.37;;;;;;;4.54;85.81;102455.63;5086185;28;20209;-80
2021/03/01 04:31:04;;;;;;;16.23;12.83;;;;;;;4.58;85.56;102457.50;5094407;28;20200;-81
2021/03/01 04:33:32;;;;;;;14.43;12.57;;;;;;;4.55;85.64;102463.41;5092672;28;20200;-81
2021/03/01 04:36:00;;;;;;;14.90;12.97;;;;;;;4.46;85.81;102462.16;5096438;28;20219;-81
2021/03/01 04:38:26;;;;;;;15.10;13.37;;;;;;;4.51;85.30;102468.41;5097200;28;20248;-81
2021/03/01 04:40:53;;;;;;;14.40;12.73;;;;;;;4.47;85.67;102464.81;5095990;28;20664;-81
2021/03/01 04:43:21;;;;;;;14.53;12.93;;;;;;;4.51;85.55;102465.81;5091625;28;20196;-80
2021/03/01 04:45:50;;;;;;;13.63;12.20;;;;;;;4.60;85.09;102475.63;5090522;28;20619;-80
2021/03/01 04:48:16;;;;;;;13.17;11.50;;;;;;;4.50;85.76;102475.28;5097412;28;20568;-80
2021/03/01 04:50:46;;;;;;;14.13;12.40;;;;;;;4.48;85.46;102471.78;5095800;28;20235;-81
2021/03/01 04:53:12;;;;;;;13.17;11.50;;;;;;;4.45;85.74;102473.34;5097661;28;20201;-80
2021/03/01 04:55:39;;;;;;;12.93;11.63;;;;;;;4.45;86.12;102476.81;5095739;28;20228;-82
2021/03/01 04:58:07;;;;;;;15.03;13.43;;;;;;;4.49;85.97;102468.34;5095818;28;20218;-81
2021/03/01 05:00:34;;;;;;;18.40;13.53;;;;;;;4.44;85.21;102462.13;5095903;28;20589;-81
2021/03/01 05:03:03;;;;;;;14.07;12.57;;;;;;;4.42;85.67;102463.78;5089375;28;20618;-80
2021/03/01 05:05:29;;;;;;;14.03;12.63;;;;;;;4.44;85.27;102464.72;5095943;28;20236;-81
2021/03/01 05:07:58;;;;;;;16.87;14.03;;;;;;;4.28;85.43;102462.31;5096765;28;20200;-80
2021/03/01 05:10:25;;;;;;;16.77;13.77;;;;;;;4.33;85.75;102466.00;5094234;28;20572;-81
2021/03/01 05:12:51;;;;;;;20.37;14.00;;;;;;;4.29;85.70;102466.69;5096368;28;20668;-81
2021/03/01 05:15:18;;;;;;;20.43;14.70;;;;;;;4.36;85.85;102469.59;5096007;28;20228;-81
2021/03/01 05:17:44;;;;;;;19.03;14.70;;;;;;;4.37;85.65;102473.91;5097014;28;20221;-81
2021/03/01 05:20:11;;;;;;;15.53;13.97;;;;;;;4.33;85.60;102469.44;5092973;28;20255;-81
2021/03/01 05:22:37;;;;;;;16.43;13.97;;;;;;;4.34;85.11;102470.31;5093864;28;20204;-79
2021/03/01 05:25:03;;;;;;;16.07;14.07;;;;;;;4.37;85.66;102473.91;5095782;28;20227;-80
2021/03/01 05:27:32;;;;;;;15.17;13.77;;;;;;;4.36;85.42;102472.16;5094605;28;20201;-81
2021/03/01 05:29:58;;;;;;;18.87;15.40;;;;;;;4.32;85.48;102477.13;5094110;28;20255;-81
2021/03/01 05:32:24;;;;;;;18.50;15.20;;;;;;;4.38;85.28;102477.41;5085565;28;20204;-81
2021/03/01 05:34:51;;;;;;;17.07;15.47;;;;;;;4.37;84.75;102471.34;5095382;28;20224;-81
2021/03/01 05:37:16;;;;;;;18.43;15.80;;;;;;;4.40;84.53;102469.69;5090852;28;20200;-81
2021/03/01 05:39:42;;;;;;;21.30;17.03;;;;;;;4.43;83.03;102467.25;5096132;28;20237;-81
2021/03/01 05:42:11;;;;;;;21.80;16.53;;;;;;;4.38;82.67;102467.94;5094763;28;20200;-81
2021/03/01 05:44:38;;;;;;;19.43;16.20;;;;;;;4.35;83.22;102474.69;5095653;28;20208;-81
2021/03/01 05:47:04;;;;;;;19.67;16.77;;;;;;;4.37;83.40;102476.50;5095854;28;20678;-80
2021/03/01 05:49:35;;;;;;;20.20;16.70;;;;;;;4.31;83.54;102470.22;5096478;28;20207;-80
2021/03/01 05:52:01;;;;;;;18.17;16.33;;;;;;;4.25;82.85;102469.97;5095960;28;20566;-80
2021/03/01 05:54:32;;;;;;;19.03;15.67;;;;;;;4.11;82.58;102466.84;5096403;28;20247;-80
2021/03/01 05:56:58;;;;;;;21.53;17.00;;;;;;;4.20;82.69;102458.56;5095063;28;20667;-80
2021/03/01 05:59:26;;;;;;;20.97;16.53;;;;;;;4.20;82.80;102449.09;5096383;28;20228;-78
2021/03/01 06:01:52;;;;;;;22.40;17.60;;;;;;;4.16;83.15;102458.47;5085491;28;20209;-78
2021/03/01 06:04:18;;;;;;;19.43;17.33;;;;;;;4.21;84.13;102460.34;5093032;28;20207;-78
2021/03/01 06:06:45;;;;;;;21.20;17.30;;;;;;;4.22;84.28;102456.91;5091001;28;20236;-79
2021/03/01 06:09:10;;;;;;;19.60;16.53;;;;;;;4.21;84.11;102457.75;5112582;22;20970;-80
2021/03/01 06:11:36;;;;;;;24.97;18.23;;;;;;;4.25;83.99;102467.41;5045994;28;20276;-81
2021/03/01 06:14:03;;;;;;;25.43;18.53;;;;;;;4.21;83.78;102471.56;5053373;28;20482;-81
2021/03/01 06:16:29;;;;;;;23.37;17.60;;;;;;;4.26;83.22;102475.22;5050571;28;20205;-81
2021/03/01 06:18:55;;;;;;;23.43;18.00;;;;;;;4.28;83.86;102467.50;5055599;28;20613;-82
2021/03/01 06:21:22;;;;;;;24.07;17.30;;;;;;;4.33;83.95;102466.88;5056616;28;20288;-81
2021/03/01 06:23:50;;;;;;;22.67;17.93;;;;;;;4.25;83.54;102475.16;5055391;28;20200;-81
2021/03/01 06:26:23;;;;;;;21.53;18.20;;;;;;;4.20;83.60;102472.34;5056339;28;20198;-82
2021/03/01 06:28:50;;;;;;;25.47;19.67;;;;;;;4.21;83.63;102468.09;5056064;28;20221;-82
2021/03/01 06:31:37;;;;;;;30.87;21.17;;;;;;;4.22;83.51;102475.88;5055407;28;20587;-82
2021/03/01 06:34:17;;;;;;;30.07;22.73;;;;;;;4.22;83.15;102478.47;5053522;28;20654;-81
2021/03/01 06:36:57;;;;;;;28.63;21.83;;;;;;;4.26;82.64;102471.72;5053737;28;20202;-84
2021/03/01 06:39:25;;;;;;;32.73;21.53;;;;;;;4.23;82.92;102474.22;5052555;28;20240;-81
2021/03/01 06:41:51;;;;;;;31.07;22.10;;;;;;;4.26;82.49;102474.31;5055248;28;20208;-84
2021/03/01 06:44:17;;;;;;;35.53;23.17;;;;;;;4.33;82.60;102477.19;5055606;28;20205;-83
2021/03/01 06:46:50;;;;;;;28.87;22.17;;;;;;;4.36;82.45;102473.84;5055538;28;20689;-83
2021/03/01 06:49:17;;;;;;;31.47;21.93;;;;;;;4.37;82.07;102463.56;5055562;28;20224;-80
2021/03/01 06:51:43;;;;;;;31.23;21.43;;;;;;;4.45;81.79;102469.06;5057216;28;20189;-83
2021/03/01 06:54:09;;;;;;;34.03;22.83;;;;;;;4.50;81.29;102474.38;5057125;28;20208;-81
2021/03/01 06:56:37;;;;;;;34.87;22.90;;;;;;;4.49;81.74;102472.66;5059567;28;20232;-81
2021/03/01 06:59:14;;;;;;;34.07;22.93;;;;;;;4.50;81.89;102469.22;5059928;28;20236;-83
2021/03/01 07:01:48;;;;;;;32.40;23.30;;;;;;;4.46;81.25;102470.81;5058605;28;20656;-83
2021/03/01 07:04:22;;;;;;;38.87;24.50;;;;;;;4.51;81.17;102481.34;5059997;28;20205;-80
2021/03/01 07:06:49;;;;;;;35.80;24.33;;;;;;;4.44;80.96;102485.41;5059836;28;20202;-82
2021/03/01 07:09:16;;;;;;;39.13;26.27;;;;;;;4.50;80.78;102483.06;5059900;28;20229;-80
2021/03/01 07:11:44;;;;;;;36.97;24.73;;;;;;;4.52;80.14;102485.66;5061531;28;20224;-82
2021/03/01 07:14:12;;;;;;;35.27;24.70;;;;;;;4.51;80.47;102489.97;5063404;28;20212;-83
2021/03/01 07:16:39;;;;;;;38.90;24.27;;;;;;;4.56;80.18;102485.88;5061023;28;20245;-80
2021/03/01 07:19:06;;;;;;;32.70;24.53;;;;;;;4.52;80.25;102484.00;5059258;28;20693;-77
2021/03/01 07:21:35;;;;;;;41.87;27.47;;;;;;;4.57;80.20;102487.63;5060532;28;20669;-82
2021/03/01 07:24:02;;;;;;;48.07;29.57;;;;;;;4.61;79.46;102490.34;5057888;28;20209;-82
2021/03/01 07:26:28;;;;;;;43.60;28.23;;;;;;;4.64;78.94;102495.63;5058519;28;20201;-83
2021/03/01 07:29:03;;;;;;;50.13;28.83;;;;;;;4.65;78.77;102492.22;5056757;28;20580;-82
2021/03/01 07:31:32;;;;;;;48.47;29.27;;;;;;;4.65;79.09;102494.81;5057911;28;20198;-81
2021/03/01 07:33:59;;;;;;;51.33;27.93;;;;;;;4.69;78.17;102489.81;5057097;28;20545;-85
2021/03/01 07:36:25;;;;;;;48.20;29.70;;;;;;;4.64;78.11;102483.59;5058135;28;20279;-84
2021/03/01 07:38:51;;;;;;;53.43;31.43;;;;;;;4.65;78.21;102485.34;5057401;28;20703;-80
2021/03/01 07:41:18;;;;;;;52.23;31.10;;;;;;;4.66;78.29;102493.97;5057523;28;20687;-84
2021/03/01 07:43:44;;;;;;;53.43;30.73;;;;;;;4.69;77.80;102497.56;5057317;28;20204;-82
2021/03/01 07:46:12;;;;;;;53.27;30.03;;;;;;;4.67;77.91;102493.16;5058004;28;20201;-82
2021/03/01 07:48:40;;;;;;;47.70;28.47;;;;;;;4.70;77.67;102489.00;5055507;28;20201;-81
2021/03/01 07:53:50;;;;;;;51.17;31.43;;;;;;;4.70;77.52;102499.34;5056391;28;20205;-84
2021/03/01 07:56:52;;;;;;;55.50;32.57;;;;;;;4.67;77.57;102506.09;5057514;28;20209;-81
2021/03/01 07:59:36;;;;;;;45.80;29.83;;;;;;;4.70;77.28;102514.00;5055361;28;20229;-85
2021/03/01 08:02:14;;;;;;;46.53;27.60;;;;;;;4.65;77.89;102512.91;5060058;28;20189;-85
2021/03/01 08:04:41;;;;;;;46.50;28.20;;;;;;;4.64;78.16;102517.22;5057846;28;20209;-83
2021/03/01 08:07:07;;;;;;;44.43;27.97;;;;;;;4.71;76.95;102518.31;5060676;28;20194;-84
2021/03/01 08:09:51;;;;;;;53.70;29.87;;;;;;;4.75;76.58;102525.38;5060581;28;20226;-82
2021/03/01 08:13:09;;;;;;;45.73;27.87;;;;;;;4.74;76.71;102526.22;5062378;28;20225;-82
2021/03/01 08:15:43;;;;;;;44.17;26.47;;;;;;;4.70;76.63;102526.91;5060333;28;20205;-80
2021/03/01 08:18:12;;;;;;;39.97;24.37;;;;;;;4.73;76.09;102529.59;5060461;28;20200;-83
2021/03/01 08:20:53;;;;;;;35.70;23.47;;;;;;;4.66;76.65;102528.50;5058641;28;20225;-82
2021/03/01 08:23:21;;;;;;;28.63;22.00;;;;;;;4.63;76.48;102532.66;5058135;28;20212;-79
2021/03/01 08:25:56;;;;;;;27.80;20.87;;;;;;;4.68;76.95;102538.91;5058016;28;20202;-82
2021/03/01 08:28:50;;;;;;;27.40;20.77;;;;;;;4.68;76.95;102538.91;5059082;28;20196;-79
2021/03/01 08:31:24;;;;;;;23.13;19.57;;;;;;;4.75;76.34;102546.06;5075094;28;20213;-78
2021/03/01 08:33:51;;;;;;;32.53;21.17;;;;;;;4.73;76.11;102538.25;5078932;28;20181;-78
2021/03/01 08:36:22;;;;;;;26.73;20.77;;;;;;;4.80;76.45;102544.56;5073107;28;20264;-77
2021/03/01 08:38:50;;;;;;;28.03;21.17;;;;;;;4.82;76.18;102548.09;5078902;28;20215;-76
2021/03/01 08:41:17;;;;;;;31.53;22.50;;;;;;;4.76;76.17;102547.84;5068608;28;20217;-78
2021/03/01 08:43:45;;;;;;;34.83;23.97;;;;;;;4.86;75.56;102549.09;5079374;28;20195;-75
2021/03/01 08:46:19;;;;;;;33.80;22.90;;;;;;;4.93;75.21;102543.31;5067873;28;20205;-81
2021/03/01 08:48:46;;;;;;;29.93;22.97;;;;;;;4.91;76.09;102548.41;5056047;28;20201;-82
2021/03/01 08:51:15;;;;;;;30.80;22.47;;;;;;;5.02;75.61;102542.81;5054450;28;20202;-78
2021/03/01 08:53:41;;;;;;;31.70;22.87;;;;;;;5.02;75.03;102546.25;5054734;28;20205;-79
2021/03/01 08:56:17;;;;;;;27.43;21.23;;;;;;;5.08;75.70;102551.66;5054727;28;20202;-81
2021/03/01 08:58:43;;;;;;;27.80;20.27;;;;;;;5.10;75.68;102539.66;5051191;28;20221;-80
2021/03/01 09:01:09;;;;;;;23.33;18.20;;;;;;;5.19;74.56;102536.53;5050613;28;20213;-81
2021/03/01 09:03:36;;;;;;;24.07;18.83;;;;;;;5.27;74.29;102544.56;5055977;28;20215;-81
2021/03/01 09:06:05;;;;;;;20.10;17.30;;;;;;;5.26;74.62;102542.81;5056787;28;20576;-82
2021/03/01 09:08:35;;;;;;;20.27;18.00;;;;;;;5.30;74.60;102537.81;5056770;28;20669;-83
2021/03/01 09:11:03;;;;;;;18.00;16.20;;;;;;;5.30;74.24;102542.13;5054952;28;20217;-82
2021/03/01 09:13:30;;;;;;;19.40;16.87;;;;;;;5.27;74.95;102541.97;5056669;28;20206;-82
2021/03/01 09:16:03;;;;;;;18.80;15.33;;;;;;;5.33;75.20;102545.69;5056896;28;20230;-78
2021/03/01 09:18:30;;;;;;;13.83;12.23;;;;;;;5.38;74.41;102540.69;5057975;28;20221;-81
2021/03/01 09:20:57;;;;;;;14.40;12.67;;;;;;;5.35;74.41;102535.38;5053817;28;20203;-78
2021/03/01 09:23:35;;;;;;;13.83;12.43;;;;;;;5.41;73.93;102526.94;5056287;28;20206;-80
2021/03/01 09:26:01;;;;;;;13.03;11.73;;;;;;;5.51;73.71;102526.44;5053517;28;20622;-80
2021/03/01 09:28:31;;;;;;;15.87;12.93;;;;;;;5.55;73.02;102529.22;5053427;28;20196;-82
2021/03/01 09:31:03;;;;;;;13.80;12.40;;;;;;;5.40;74.53;102540.75;5051561;28;20260;-81
2021/03/01 09:33:29;;;;;;;14.60;12.77;;;;;;;5.51;73.47;102531.63;5053964;28;20207;-83
2021/03/01 09:35:55;;;;;;;13.73;12.43;;;;;;;5.58;72.62;102529.31;5052788;28;20301;-80
2021/03/01 09:38:22;;;;;;;14.10;12.60;;;;;;;5.63;72.12;102529.50;5056023;28;20549;-84
2021/03/01 09:40:55;;;;;;;14.67;11.87;;;;;;;5.63;72.47;102532.09;5052654;28;20307;-81
2021/03/01 09:43:23;;;;;;;13.37;12.07;;;;;;;5.65;73.10;102522.66;5053271;28;20215;-83
2021/03/01 09:45:49;;;;;;;13.80;12.57;;;;;;;5.66;73.11;102514.03;5053082;28;20283;-82
2021/03/01 09:48:15;;;;;;;13.37;11.73;;;;;;;5.68;73.30;102519.28;5056100;28;20211;-82
2021/03/01 09:50:41;;;;;;;13.93;11.17;;;;;;;5.72;72.82;102522.03;5056157;28;20224;-82
2021/03/01 09:53:08;;;;;;;12.50;11.27;;;;;;;5.85;72.56;102523.34;5056010;28;20200;-82
2021/03/01 09:55:34;;;;;;;11.67;10.47;;;;;;;5.86;72.53;102525.09;5053644;28;20207;-82
2021/03/01 09:58:01;;;;;;;13.63;12.13;;;;;;;5.87;71.78;102524.28;5054045;28;20736;-82
2021/03/01 10:00:29;;;;;;;12.73;11.43;;;;;;;5.94;71.98;102526.22;5052289;28;20732;-82
2021/03/01 10:02:56;;;;;;;12.30;11.17;;;;;;;6.00;71.40;102529.91;5054432;28;20209;-79
2021/03/01 10:05:23;;;;;;;12.73;10.40;;;;;;;6.01;71.46;102532.56;5051789;28;20212;-82
2021/03/01 10:08:03;;;;;;;12.47;11.17;;;;;;;5.92;71.32;102527.00;5054220;28;20195;-82
2021/03/01 10:10:34;;;;;;;12.53;11.33;;;;;;;5.87;72.39;102529.47;5053301;28;20273;-83
2021/03/01 10:13:01;;;;;;;11.70;10.60;;;;;;;5.94;72.67;102531.41;5054299;28;20208;-82
2021/03/01 10:15:27;;;;;;;15.17;10.93;;;;;;;5.86;71.24;102535.44;5056521;28;20211;-81
2021/03/01 10:18:04;;;;;;;15.27;11.37;;;;;;;5.89;71.44;102530.38;5056375;28;20217;-82
2021/03/01 10:20:30;;;;;;;13.73;11.07;;;;;;;5.93;71.97;102534.84;5055488;28;20320;-81
2021/03/01 10:23:01;;;;;;;11.37;10.27;;;;;;;5.87;71.78;102529.47;5057074;28;20203;-81
2021/03/01 10:25:36;;;;;;;11.83;10.60;;;;;;;5.86;72.26;102527.69;5055878;28;20201;-83
2021/03/01 10:28:05;;;;;;;12.97;11.63;;;;;;;5.95;71.70;102529.75;5054467;28;20206;-82
2021/03/01 10:30:31;;;;;;;13.17;11.50;;;;;;;5.93;71.62;102529.66;5054735;28;20653;-83
2021/03/01 10:33:07;;;;;;;11.87;10.73;;;;;;;5.91;71.12;102522.69;5056369;28;20253;-82
2021/03/01 10:35:34;;;;;;;10.97;9.97;;;;;;;5.90;70.79;102521.78;5055362;28;20212;-82
2021/03/01 10:38:01;;;;;;;12.77;11.47;;;;;;;5.47;71.53;102521.97;5054055;28;20224;-82
2021/03/01 10:40:27;;;;;;;12.67;11.50;;;;;;;5.54;72.42;102513.63;5054494;28;20230;-86
2021/03/01 10:42:54;;;;;;;11.87;10.77;;;;;;;5.68;72.92;102511.50;5055229;28;20211;-80
2021/03/01 10:45:21;;;;;;;14.10;10.23;;;;;;;5.80;72.69;102519.69;5054944;28;20259;-84
2021/03/01 10:48:00;;;;;;;11.33;10.23;;;;;;;5.86;73.18;102519.91;5055997;28;20213;-83
2021/03/01 10:50:26;;;;;;;10.63;9.60;;;;;;;5.49;72.00;102517.75;5052045;28;20226;-82
2021/03/01 10:52:51;;;;;;;12.60;11.37;;;;;;;5.59;72.45;102522.44;5053676;28;20201;-80
2021/03/01 10:55:17;;;;;;;10.50;9.50;;;;;;;5.83;72.36;102526.69;5052555;28;20310;-80
2021/03/01 10:57:43;;;;;;;10.17;8.97;;;;;;;6.01;72.71;102531.69;5054177;28;20690;-81
2021/03/01 11:00:10;;;;;;;10.10;9.10;;;;;;;6.18;71.81;102530.50;5053785;28;20912;-82
2021/03/01 11:02:37;;;;;;;9.07;8.17;;;;;;;6.30;71.86;102525.75;5054830;28;20196;-83
2021/03/01 11:05:03;;;;;;;10.20;9.20;;;;;;;6.35;70.26;102524.16;5052882;28;20198;-81
2021/03/01 11:07:29;;;;;;;9.83;8.83;;;;;;;6.08;68.30;102520.66;5054964;28;20257;-84
2021/03/01 11:09:55;;;;;;;9.07;8.00;;;;;;;6.00;71.22;102522.13;5052941;28;20242;-82
2021/03/01 11:12:21;;;;;;;9.43;8.53;;;;;;;6.12;71.12;102517.34;5054224;28;20204;-81
2021/03/01 11:14:47;;;;;;;10.47;9.47;;;;;;;6.27;70.92;102523.03;5055245;28;20675;-81
2021/03/01 11:17:13;;;;;;;10.90;9.80;;;;;;;6.28;71.37;102524.81;5053906;28;20690;-82
2021/03/01 11:19:39;;;;;;;10.20;9.20;;;;;;;6.36;70.40;102512.06;5053395;28;20226;-82
2021/03/01 11:22:05;;;;;;;10.03;9.13;;;;;;;6.28;68.24;102516.13;5054260;28;20635;-82
2021/03/01 11:24:31;;;;;;;9.43;8.53;;;;;;;6.27;70.11;102507.47;5054330;28;20253;-81